sensor_id;sensor_type;location;lat;lon;timestamp;temperature;humidity
33095;DHT22;19459;53.044;8.910;2024-02-15T00:00:44;11.80;99.90
33095;DHT22;19459;53.044;8.910;2024-02-15T00:03:10;11.90;99.90
33095;DHT22;19459;53.044;8.910;2024-02-15T00:05:38;11.90;99.90
33095;DHT22;19459;53.044;8.910;2024-02-15T00:08:05;11.90;99.90
33095;DHT22;19459;53.044;8.910;2024-02-15T00:10:31;11.90;99.90
33095;DHT22;19459;53.044;8.910;2024-02-15T00:12:58;11.90;99.90
33095;DHT22;19459;53.044;8.910;2024-02-15T00:15:24;11.90;99.90
33095;DHT22;19459;53.044;8.910;2024-02-15T00:17:50;11.90;99.90
33095;DHT22;19459;53.044;8.910;2024-02-15T00:20:17;11.90;99.90
33095;DHT22;19459;53.044;8.910;2024-02-15T00:22:43;11.90;99.90
33095;DHT22;19459;53.044;8.910;2024-02-15T00:25:09;12.00;99.90
33095;DHT22;19459;53.044;8.910;2024-02-15T00:27:36;12.00;99.90
33095;DHT22;19459;53.044;8.910;2024-02-15T00:30:03;12.00;99.90
33095;DHT22;19459;53.044;8.910;2024-02-15T00:32:33;12.00;99.90
33095;DHT22;19459;53.044;8.910;2024-02-15T00:34:59;12.00;99.90
33095;DHT22;19459;53.044;8.910;2024-02-15T00:37:25;12.00;99.90
33095;DHT22;19459;53.044;8.910;2024-02-15T00:39:54;12.00;99.90
33095;DHT22;19459;53.044;8.910;2024-02-15T00:42:19;12.00;99.90
33095;DHT22;19459;53.044;8.910;2024-02-15T00:44:45;12.00;99.90
33095;DHT22;19459;53.044;8.910;2024-02-15T00:47:11;12.00;99.90
33095;DHT22;19459;53.044;8.910;2024-02-15T00:49:37;12.00;99.90
33095;DHT22;19459;53.044;8.910;2024-02-15T00:52:03;12.00;99.90
33095;DHT22;19459;53.044;8.910;2024-02-15T00:54:29;12.00;99.90
33095;DHT22;19459;53.044;8.910;2024-02-15T00:56:55;12.00;99.90
33095;DHT22;19459;53.044;8.910;2024-02-15T00:59:21;12.00;99.90
33095;DHT22;19459;53.044;8.910;2024-02-15T01:01:47;12.00;99.90
33095;DHT22;19459;53.044;8.910;2024-02-15T01:04:13;12.00;99.90
33095;DHT22;19459;53.044;8.910;2024-02-15T01:06:39;12.00;99.90
33095;DHT22;19459;53.044;8.910;2024-02-15T01:09:05;12.00;99.90
33095;DHT22;19459;53.044;8.910;2024-02-15T01:11:31;12.00;99.90
33095;DHT22;19459;53.044;8.910;2024-02-15T01:14:03;12.00;99.90
33095;DHT22;19459;53.044;8.910;2024-02-15T01:16:29;12.00;99.90
33095;DHT22;19459;53.044;8.910;2024-02-15T01:18:54;12.00;99.90
33095;DHT22;19459;53.044;8.910;2024-02-15T01:21:20;12.10;99.90
33095;DHT22;19459;53.044;8.910;2024-02-15T01:23:48;12.10;99.90
33095;DHT22;19459;53.044;8.910;2024-02-15T01:26:13;12.00;99.90
33095;DHT22;19459;53.044;8.910;2024-02-15T01:28:40;12.00;99.90
33095;DHT22;19459;53.044;8.910;2024-02-15T01:31:09;12.00;99.90
33095;DHT22;19459;53.044;8.910;2024-02-15T01:33:36;12.00;99.90
33095;DHT22;19459;53.044;8.910;2024-02-15T01:36:04;12.00;99.90
33095;DHT22;19459;53.044;8.910;2024-02-15T01:38:30;12.00;99.90
33095;DHT22;19459;53.044;8.910;2024-02-15T01:40:56;12.00;99.90
33095;DHT22;19459;53.044;8.910;2024-02-15T01:43:22;12.00;99.90
33095;DHT22;19459;53.044;8.910;2024-02-15T01:45:47;12.00;99.90
33095;DHT22;19459;53.044;8.910;2024-02-15T01:48:15;12.00;99.90
33095;DHT22;19459;53.044;8.910;2024-02-15T01:50:41;12.00;99.90
33095;DHT22;19459;53.044;8.910;2024-02-15T01:53:09;12.00;99.90
33095;DHT22;19459;53.044;8.910;2024-02-15T01:55:37;12.00;99.90
33095;DHT22;19459;53.044;8.910;2024-02-15T01:58:03;11.90;99.90
33095;DHT22;19459;53.044;8.910;2024-02-15T02:00:30;12.00;99.90
33095;DHT22;19459;53.044;8.910;2024-02-15T02:02:57;11.90;99.90
33095;DHT22;19459;53.044;8.910;2024-02-15T02:05:27;11.90;99.90
33095;DHT22;19459;53.044;8.910;2024-02-15T02:07:55;12.00;99.90
33095;DHT22;19459;53.044;8.910;2024-02-15T02:10:25;12.00;99.90
33095;DHT22;19459;53.044;8.910;2024-02-15T02:12:52;12.00;99.90
33095;DHT22;19459;53.044;8.910;2024-02-15T02:15:18;12.00;99.90
33095;DHT22;19459;53.044;8.910;2024-02-15T02:17:49;11.90;99.90
33095;DHT22;19459;53.044;8.910;2024-02-15T02:20:16;12.00;99.90
33095;DHT22;19459;53.044;8.910;2024-02-15T02:22:44;12.00;99.90
33095;DHT22;19459;53.044;8.910;2024-02-15T02:25:13;12.00;99.90
33095;DHT22;19459;53.044;8.910;2024-02-15T02:27:39;12.00;99.90
33095;DHT22;19459;53.044;8.910;2024-02-15T02:30:15;12.00;99.90
33095;DHT22;19459;53.044;8.910;2024-02-15T02:32:44;12.00;99.90
33095;DHT22;19459;53.044;8.910;2024-02-15T02:35:11;12.00;99.90
33095;DHT22;19459;53.044;8.910;2024-02-15T02:37:41;12.00;99.90
33095;DHT22;19459;53.044;8.910;2024-02-15T02:40:08;12.00;99.90
33095;DHT22;19459;53.044;8.910;2024-02-15T02:42:51;12.00;99.90
33095;DHT22;19459;53.044;8.910;2024-02-15T02:45:18;12.00;99.90
33095;DHT22;19459;53.044;8.910;2024-02-15T02:47:48;12.00;99.90
33095;DHT22;19459;53.044;8.910;2024-02-15T02:50:15;12.00;99.90
33095;DHT22;19459;53.044;8.910;2024-02-15T02:52:41;12.00;99.90
33095;DHT22;19459;53.044;8.910;2024-02-15T02:55:07;12.00;99.90
33095;DHT22;19459;53.044;8.910;2024-02-15T02:57:37;12.00;99.90
33095;DHT22;19459;53.044;8.910;2024-02-15T03:00:05;12.10;99.90
33095;DHT22;19459;53.044;8.910;2024-02-15T03:02:48;12.00;99.90
33095;DHT22;19459;53.044;8.910;2024-02-15T03:05:14;12.10;99.90
33095;DHT22;19459;53.044;8.910;2024-02-15T03:07:40;12.10;99.90
33095;DHT22;19459;53.044;8.910;2024-02-15T03:10:06;12.00;99.90
33095;DHT22;19459;53.044;8.910;2024-02-15T03:12:39;12.00;99.90
33095;DHT22;19459;53.044;8.910;2024-02-15T03:15:06;12.10;99.90
33095;DHT22;19459;53.044;8.910;2024-02-15T03:17:45;12.10;99.90
33095;DHT22;19459;53.044;8.910;2024-02-15T03:20:12;12.10;99.90
33095;DHT22;19459;53.044;8.910;2024-02-15T03:22:59;12.10;99.90
33095;DHT22;19459;53.044;8.910;2024-02-15T03:25:27;12.10;99.90
33095;DHT22;19459;53.044;8.910;2024-02-15T03:27:58;12.10;99.90
33095;DHT22;19459;53.044;8.910;2024-02-15T03:30:29;12.10;99.90
33095;DHT22;19459;53.044;8.910;2024-02-15T03:32:57;12.10;99.90
33095;DHT22;19459;53.044;8.910;2024-02-15T03:35:25;12.10;99.90
33095;DHT22;19459;53.044;8.910;2024-02-15T03:37:52;12.10;99.90
33095;DHT22;19459;53.044;8.910;2024-02-15T03:40:19;12.00;99.90
33095;DHT22;19459;53.044;8.910;2024-02-15T03:42:46;12.10;99.90
33095;DHT22;19459;53.044;8.910;2024-02-15T03:45:12;12.10;99.90
33095;DHT22;19459;53.044;8.910;2024-02-15T03:47:38;12.10;99.90
33095;DHT22;19459;53.044;8.910;2024-02-15T03:50:04;12.10;99.90
33095;DHT22;19459;53.044;8.910;2024-02-15T03:52:31;12.10;99.90
33095;DHT22;19459;53.044;8.910;2024-02-15T03:54:58;12.10;99.90
33095;DHT22;19459;53.044;8.910;2024-02-15T03:57:25;12.10;99.90
33095;DHT22;19459;53.044;8.910;2024-02-15T03:59:51;12.10;99.90
33095;DHT22;19459;53.044;8.910;2024-02-15T04:02:24;12.00;99.90
33095;DHT22;19459;53.044;8.910;2024-02-15T04:04:52;12.00;99.90
33095;DHT22;19459;53.044;8.910;2024-02-15T04:07:20;12.10;99.90
33095;DHT22;19459;53.044;8.910;2024-02-15T04:09:51;12.10;99.90
33095;DHT22;19459;53.044;8.910;2024-02-15T04:12:16;12.10;99.90
33095;DHT22;19459;53.044;8.910;2024-02-15T04:14:46;12.10;99.90
33095;DHT22;19459;53.044;8.910;2024-02-15T04:17:12;12.10;99.90
33095;DHT22;19459;53.044;8.910;2024-02-15T04:19:45;12.10;99.90
33095;DHT22;19459;53.044;8.910;2024-02-15T04:22:12;12.10;99.90
33095;DHT22;19459;53.044;8.910;2024-02-15T04:24:38;12.10;99.90
33095;DHT22;19459;53.044;8.910;2024-02-15T04:27:09;12.10;99.90
33095;DHT22;19459;53.044;8.910;2024-02-15T04:29:42;12.10;99.90
33095;DHT22;19459;53.044;8.910;2024-02-15T04:32:10;12.10;99.90
33095;DHT22;19459;53.044;8.910;2024-02-15T04:34:37;12.00;99.90
33095;DHT22;19459;53.044;8.910;2024-02-15T04:37:03;12.10;99.90
33095;DHT22;19459;53.044;8.910;2024-02-15T04:39:35;12.10;99.90
33095;DHT22;19459;53.044;8.910;2024-02-15T04:42:05;12.10;99.90
33095;DHT22;19459;53.044;8.910;2024-02-15T04:44:33;12.10;99.90
33095;DHT22;19459;53.044;8.910;2024-02-15T04:47:01;12.10;99.90
33095;DHT22;19459;53.044;8.910;2024-02-15T04:49:31;12.10;99.90
33095;DHT22;19459;53.044;8.910;2024-02-15T04:51:57;12.00;99.90
33095;DHT22;19459;53.044;8.910;2024-02-15T04:54:23;12.00;99.90
33095;DHT22;19459;53.044;8.910;2024-02-15T04:56:49;12.00;99.90
33095;DHT22;19459;53.044;8.910;2024-02-15T04:59:19;12.00;99.90
33095;DHT22;19459;53.044;8.910;2024-02-15T05:01:47;12.00;99.90
33095;DHT22;19459;53.044;8.910;2024-02-15T05:04:14;12.00;99.90
33095;DHT22;19459;53.044;8.910;2024-02-15T05:06:40;11.90;99.90
33095;DHT22;19459;53.044;8.910;2024-02-15T05:09:06;12.00;99.90
33095;DHT22;19459;53.044;8.910;2024-02-15T05:11:42;12.00;99.90
33095;DHT22;19459;53.044;8.910;2024-02-15T05:14:12;12.00;99.90
33095;DHT22;19459;53.044;8.910;2024-02-15T05:16:41;12.00;99.90
33095;DHT22;19459;53.044;8.910;2024-02-15T05:19:09;11.90;99.90
33095;DHT22;19459;53.044;8.910;2024-02-15T05:21:38;11.90;99.90
33095;DHT22;19459;53.044;8.910;2024-02-15T05:24:05;11.90;99.90
33095;DHT22;19459;53.044;8.910;2024-02-15T05:26:30;12.00;99.90
33095;DHT22;19459;53.044;8.910;2024-02-15T05:28:56;11.90;99.90
33095;DHT22;19459;53.044;8.910;2024-02-15T05:31:22;11.90;99.90
33095;DHT22;19459;53.044;8.910;2024-02-15T05:33:51;11.90;99.90
33095;DHT22;19459;53.044;8.910;2024-02-15T05:36:19;11.90;99.90
33095;DHT22;19459;53.044;8.910;2024-02-15T05:38:54;11.90;99.90
33095;DHT22;19459;53.044;8.910;2024-02-15T05:41:20;11.90;99.90
33095;DHT22;19459;53.044;8.910;2024-02-15T05:43:47;11.90;99.90
33095;DHT22;19459;53.044;8.910;2024-02-15T05:46:18;11.90;99.90
33095;DHT22;19459;53.044;8.910;2024-02-15T05:48:46;11.90;99.90
33095;DHT22;19459;53.044;8.910;2024-02-15T05:51:12;11.90;99.90
33095;DHT22;19459;53.044;8.910;2024-02-15T05:53:38;11.90;99.90
33095;DHT22;19459;53.044;8.910;2024-02-15T05:56:05;11.90;99.90
33095;DHT22;19459;53.044;8.910;2024-02-15T05:58:32;11.90;99.90
33095;DHT22;19459;53.044;8.910;2024-02-15T06:00:59;11.90;99.90
33095;DHT22;19459;53.044;8.910;2024-02-15T06:03:34;11.90;99.90
33095;DHT22;19459;53.044;8.910;2024-02-15T06:06:04;11.90;99.90
33095;DHT22;19459;53.044;8.910;2024-02-15T06:08:36;11.90;99.90
33095;DHT22;19459;53.044;8.910;2024-02-15T06:11:03;11.90;99.90
33095;DHT22;19459;53.044;8.910;2024-02-15T06:13:31;11.90;99.90
33095;DHT22;19459;53.044;8.910;2024-02-15T06:15:57;11.90;99.90
33095;DHT22;19459;53.044;8.910;2024-02-15T06:18:28;11.90;99.90
33095;DHT22;19459;53.044;8.910;2024-02-15T06:20:55;11.90;99.90
33095;DHT22;19459;53.044;8.910;2024-02-15T06:23:31;11.90;99.90
33095;DHT22;19459;53.044;8.910;2024-02-15T06:25:58;11.90;99.90
33095;DHT22;19459;53.044;8.910;2024-02-15T06:28:26;11.90;99.90
33095;DHT22;19459;53.044;8.910;2024-02-15T06:31:11;11.90;99.90
33095;DHT22;19459;53.044;8.910;2024-02-15T06:33:56;11.90;99.90
33095;DHT22;19459;53.044;8.910;2024-02-15T06:36:46;11.90;99.90
33095;DHT22;19459;53.044;8.910;2024-02-15T06:39:31;11.90;99.90
33095;DHT22;19459;53.044;8.910;2024-02-15T06:42:15;11.90;99.90
33095;DHT22;19459;53.044;8.910;2024-02-15T06:44:48;11.90;99.90
33095;DHT22;19459;53.044;8.910;2024-02-15T06:47:14;11.90;99.90
33095;DHT22;19459;53.044;8.910;2024-02-15T06:49:43;11.90;99.90
33095;DHT22;19459;53.044;8.910;2024-02-15T06:52:11;11.90;99.90
33095;DHT22;19459;53.044;8.910;2024-02-15T06:54:38;11.90;99.90
33095;DHT22;19459;53.044;8.910;2024-02-15T06:57:05;11.90;99.90
33095;DHT22;19459;53.044;8.910;2024-02-15T06:59:32;11.90;99.90
33095;DHT22;19459;53.044;8.910;2024-02-15T07:02:01;11.90;99.90
33095;DHT22;19459;53.044;8.910;2024-02-15T07:04:30;11.90;99.90
33095;DHT22;19459;53.044;8.910;2024-02-15T07:06:57;11.90;99.90
33095;DHT22;19459;53.044;8.910;2024-02-15T07:09:25;11.90;99.90
33095;DHT22;19459;53.044;8.910;2024-02-15T07:11:51;11.90;99.90
33095;DHT22;19459;53.044;8.910;2024-02-15T07:14:17;11.90;99.90
33095;DHT22;19459;53.044;8.910;2024-02-15T07:16:47;12.00;99.90
33095;DHT22;19459;53.044;8.910;2024-02-15T07:19:14;12.00;99.90
33095;DHT22;19459;53.044;8.910;2024-02-15T07:21:41;12.00;99.90
33095;DHT22;19459;53.044;8.910;2024-02-15T07:24:07;12.00;99.90
33095;DHT22;19459;53.044;8.910;2024-02-15T07:26:33;12.00;99.90
33095;DHT22;19459;53.044;8.910;2024-02-15T07:29:02;12.00;99.90
33095;DHT22;19459;53.044;8.910;2024-02-15T07:31:31;12.00;99.90
33095;DHT22;19459;53.044;8.910;2024-02-15T07:34:00;12.00;99.90
33095;DHT22;19459;53.044;8.910;2024-02-15T07:36:26;12.00;99.90
33095;DHT22;19459;53.044;8.910;2024-02-15T07:38:53;12.00;99.90
33095;DHT22;19459;53.044;8.910;2024-02-15T07:41:20;12.00;99.90
33095;DHT22;19459;53.044;8.910;2024-02-15T07:43:48;12.00;99.90
33095;DHT22;19459;53.044;8.910;2024-02-15T07:46:20;12.00;99.90
33095;DHT22;19459;53.044;8.910;2024-02-15T07:48:47;12.00;99.90
33095;DHT22;19459;53.044;8.910;2024-02-15T07:51:17;12.00;99.90
33095;DHT22;19459;53.044;8.910;2024-02-15T07:53:46;12.00;99.90
33095;DHT22;19459;53.044;8.910;2024-02-15T07:56:16;12.00;99.90
33095;DHT22;19459;53.044;8.910;2024-02-15T07:58:43;12.00;99.90
33095;DHT22;19459;53.044;8.910;2024-02-15T08:01:13;12.00;99.90
33095;DHT22;19459;53.044;8.910;2024-02-15T08:03:40;12.00;99.90
33095;DHT22;19459;53.044;8.910;2024-02-15T08:06:10;12.00;99.90
33095;DHT22;19459;53.044;8.910;2024-02-15T08:08:47;12.10;99.90
33095;DHT22;19459;53.044;8.910;2024-02-15T08:11:14;12.10;99.90
33095;DHT22;19459;53.044;8.910;2024-02-15T08:13:50;12.10;99.90
33095;DHT22;19459;53.044;8.910;2024-02-15T08:16:21;12.10;99.90
33095;DHT22;19459;53.044;8.910;2024-02-15T08:18:48;12.10;99.90
33095;DHT22;19459;53.044;8.910;2024-02-15T08:21:18;12.20;99.90
33095;DHT22;19459;53.044;8.910;2024-02-15T08:23:44;12.20;99.90
33095;DHT22;19459;53.044;8.910;2024-02-15T08:26:10;12.20;99.90
33095;DHT22;19459;53.044;8.910;2024-02-15T08:28:36;12.20;99.90
33095;DHT22;19459;53.044;8.910;2024-02-15T08:31:02;12.20;99.90
33095;DHT22;19459;53.044;8.910;2024-02-15T08:33:29;12.20;99.90
33095;DHT22;19459;53.044;8.910;2024-02-15T08:35:56;12.20;99.90
33095;DHT22;19459;53.044;8.910;2024-02-15T08:38:25;12.20;99.90
33095;DHT22;19459;53.044;8.910;2024-02-15T08:40:50;12.20;99.90
33095;DHT22;19459;53.044;8.910;2024-02-15T08:43:17;12.30;99.90
33095;DHT22;19459;53.044;8.910;2024-02-15T08:45:43;12.30;99.90
33095;DHT22;19459;53.044;8.910;2024-02-15T08:48:09;12.30;99.90
33095;DHT22;19459;53.044;8.910;2024-02-15T08:50:35;12.30;99.90
33095;DHT22;19459;53.044;8.910;2024-02-15T08:53:02;12.40;99.90
33095;DHT22;19459;53.044;8.910;2024-02-15T08:55:31;12.40;99.90
33095;DHT22;19459;53.044;8.910;2024-02-15T08:57:57;12.40;99.90
33095;DHT22;19459;53.044;8.910;2024-02-15T09:00:25;12.40;99.90
33095;DHT22;19459;53.044;8.910;2024-02-15T09:02:52;12.40;99.90
33095;DHT22;19459;53.044;8.910;2024-02-15T09:05:18;12.50;99.90
33095;DHT22;19459;53.044;8.910;2024-02-15T09:07:47;12.50;99.90
33095;DHT22;19459;53.044;8.910;2024-02-15T09:10:14;12.50;99.90
33095;DHT22;19459;53.044;8.910;2024-02-15T09:12:43;12.60;99.90
33095;DHT22;19459;53.044;8.910;2024-02-15T09:15:12;12.60;99.90
33095;DHT22;19459;53.044;8.910;2024-02-15T09:17:38;12.60;99.90
33095;DHT22;19459;53.044;8.910;2024-02-15T09:20:09;12.60;99.90
33095;DHT22;19459;53.044;8.910;2024-02-15T09:23:00;12.60;99.90
33095;DHT22;19459;53.044;8.910;2024-02-15T09:25:30;12.70;99.90
33095;DHT22;19459;53.044;8.910;2024-02-15T09:27:56;12.70;99.90
33095;DHT22;19459;53.044;8.910;2024-02-15T09:30:22;12.70;99.90
33095;DHT22;19459;53.044;8.910;2024-02-15T09:32:50;12.70;99.90
33095;DHT22;19459;53.044;8.910;2024-02-15T09:35:16;12.70;99.90
33095;DHT22;19459;53.044;8.910;2024-02-15T09:37:46;12.70;99.90
33095;DHT22;19459;53.044;8.910;2024-02-15T09:40:18;12.70;99.90
33095;DHT22;19459;53.044;8.910;2024-02-15T09:42:45;12.70;99.90
33095;DHT22;19459;53.044;8.910;2024-02-15T09:45:13;12.70;99.90
33095;DHT22;19459;53.044;8.910;2024-02-15T09:47:40;12.60;99.90
33095;DHT22;19459;53.044;8.910;2024-02-15T09:50:11;12.60;99.90
33095;DHT22;19459;53.044;8.910;2024-02-15T09:52:45;12.70;99.90
33095;DHT22;19459;53.044;8.910;2024-02-15T09:55:11;12.60;99.90
33095;DHT22;19459;53.044;8.910;2024-02-15T09:57:42;12.60;99.90
33095;DHT22;19459;53.044;8.910;2024-02-15T10:00:09;12.60;99.90
33095;DHT22;19459;53.044;8.910;2024-02-15T10:02:40;12.60;99.90
33095;DHT22;19459;53.044;8.910;2024-02-15T10:05:09;12.60;99.90
33095;DHT22;19459;53.044;8.910;2024-02-15T10:07:41;12.60;99.90
33095;DHT22;19459;53.044;8.910;2024-02-15T10:10:16;12.60;99.90
33095;DHT22;19459;53.044;8.910;2024-02-15T10:12:44;12.60;99.90
33095;DHT22;19459;53.044;8.910;2024-02-15T10:15:10;12.60;99.90
33095;DHT22;19459;53.044;8.910;2024-02-15T10:17:35;12.60;99.90
33095;DHT22;19459;53.044;8.910;2024-02-15T10:20:06;12.60;99.90
33095;DHT22;19459;53.044;8.910;2024-02-15T10:22:32;12.60;99.90
33095;DHT22;19459;53.044;8.910;2024-02-15T10:25:11;12.60;99.90
33095;DHT22;19459;53.044;8.910;2024-02-15T10:27:42;12.50;99.90
33095;DHT22;19459;53.044;8.910;2024-02-15T10:30:18;12.60;99.90
33095;DHT22;19459;53.044;8.910;2024-02-15T10:32:45;12.60;99.90
33095;DHT22;19459;53.044;8.910;2024-02-15T10:35:21;12.60;99.90
33095;DHT22;19459;53.044;8.910;2024-02-15T10:37:48;12.60;99.90
33095;DHT22;19459;53.044;8.910;2024-02-15T10:40:19;12.60;99.90
33095;DHT22;19459;53.044;8.910;2024-02-15T10:42:48;12.60;99.90
33095;DHT22;19459;53.044;8.910;2024-02-15T10:45:17;12.60;99.90
33095;DHT22;19459;53.044;8.910;2024-02-15T10:47:46;12.60;99.90
33095;DHT22;19459;53.044;8.910;2024-02-15T10:50:16;12.60;99.90
33095;DHT22;19459;53.044;8.910;2024-02-15T10:52:51;12.60;99.90
33095;DHT22;19459;53.044;8.910;2024-02-15T10:55:43;12.60;99.90
33095;DHT22;19459;53.044;8.910;2024-02-15T10:58:19;12.60;99.90
33095;DHT22;19459;53.044;8.910;2024-02-15T11:00:46;12.60;99.90
33095;DHT22;19459;53.044;8.910;2024-02-15T11:03:19;12.60;99.90
33095;DHT22;19459;53.044;8.910;2024-02-15T11:05:51;12.60;99.90
33095;DHT22;19459;53.044;8.910;2024-02-15T11:08:18;12.60;99.90
33095;DHT22;19459;53.044;8.910;2024-02-15T11:10:44;12.60;99.90
33095;DHT22;19459;53.044;8.910;2024-02-15T11:13:10;12.60;99.90
33095;DHT22;19459;53.044;8.910;2024-02-15T11:15:47;12.60;99.90
33095;DHT22;19459;53.044;8.910;2024-02-15T11:18:45;12.60;99.90
33095;DHT22;19459;53.044;8.910;2024-02-15T11:21:17;12.50;99.90
33095;DHT22;19459;53.044;8.910;2024-02-15T11:23:44;12.50;99.90
33095;DHT22;19459;53.044;8.910;2024-02-15T11:26:43;12.50;99.90
33095;DHT22;19459;53.044;8.910;2024-02-15T11:32:47;12.60;99.90
33095;DHT22;19459;53.044;8.910;2024-02-15T11:35:25;12.50;99.90
33095;DHT22;19459;53.044;8.910;2024-02-15T11:37:57;12.50;99.90
33095;DHT22;19459;53.044;8.910;2024-02-15T11:43:08;12.50;99.90
33095;DHT22;19459;53.044;8.910;2024-02-15T11:45:35;12.50;99.90
33095;DHT22;19459;53.044;8.910;2024-02-15T11:48:11;12.60;99.90
33095;DHT22;19459;53.044;8.910;2024-02-15T11:50:38;12.60;99.90
33095;DHT22;19459;53.044;8.910;2024-02-15T11:53:08;12.60;99.90
33095;DHT22;19459;53.044;8.910;2024-02-15T11:55:38;12.60;99.90
33095;DHT22;19459;53.044;8.910;2024-02-15T11:58:05;12.60;99.90
33095;DHT22;19459;53.044;8.910;2024-02-15T12:00:34;12.60;99.90
33095;DHT22;19459;53.044;8.910;2024-02-15T12:03:19;12.70;99.90
33095;DHT22;19459;53.044;8.910;2024-02-15T12:06:04;12.70;99.90
33095;DHT22;19459;53.044;8.910;2024-02-15T12:08:51;12.70;99.90
33095;DHT22;19459;53.044;8.910;2024-02-15T12:11:37;12.70;99.90
33095;DHT22;19459;53.044;8.910;2024-02-15T12:14:22;12.80;99.90
33095;DHT22;19459;53.044;8.910;2024-02-15T12:17:08;12.70;99.90
33095;DHT22;19459;53.044;8.910;2024-02-15T12:19:55;12.80;99.90
33095;DHT22;19459;53.044;8.910;2024-02-15T12:22:33;12.80;99.90
33095;DHT22;19459;53.044;8.910;2024-02-15T12:25:02;12.90;99.90
33095;DHT22;19459;53.044;8.910;2024-02-15T12:27:38;12.80;99.90
33095;DHT22;19459;53.044;8.910;2024-02-15T12:30:05;12.90;99.90
33095;DHT22;19459;53.044;8.910;2024-02-15T12:32:34;12.80;99.90
33095;DHT22;19459;53.044;8.910;2024-02-15T12:35:30;12.90;99.90
33095;DHT22;19459;53.044;8.910;2024-02-15T12:38:03;12.90;99.90
33095;DHT22;19459;53.044;8.910;2024-02-15T12:40:39;12.90;99.90
33095;DHT22;19459;53.044;8.910;2024-02-15T12:43:10;12.90;99.90
33095;DHT22;19459;53.044;8.910;2024-02-15T12:45:38;12.90;99.90
33095;DHT22;19459;53.044;8.910;2024-02-15T12:48:07;12.90;99.90
33095;DHT22;19459;53.044;8.910;2024-02-15T12:50:34;12.90;99.90
33095;DHT22;19459;53.044;8.910;2024-02-15T12:53:00;13.00;99.90
33095;DHT22;19459;53.044;8.910;2024-02-15T12:55:32;13.00;99.90
33095;DHT22;19459;53.044;8.910;2024-02-15T12:58:12;13.00;99.90
33095;DHT22;19459;53.044;8.910;2024-02-15T13:00:38;13.00;99.90
33095;DHT22;19459;53.044;8.910;2024-02-15T13:03:07;13.00;99.90
33095;DHT22;19459;53.044;8.910;2024-02-15T13:05:37;12.90;99.90
33095;DHT22;19459;53.044;8.910;2024-02-15T13:08:04;12.90;99.90
33095;DHT22;19459;53.044;8.910;2024-02-15T13:10:38;12.90;99.90
33095;DHT22;19459;53.044;8.910;2024-02-15T13:13:04;12.90;99.90
33095;DHT22;19459;53.044;8.910;2024-02-15T13:15:31;13.00;99.90
33095;DHT22;19459;53.044;8.910;2024-02-15T13:18:02;12.90;99.90
33095;DHT22;19459;53.044;8.910;2024-02-15T13:20:31;13.00;99.90
33095;DHT22;19459;53.044;8.910;2024-02-15T13:23:02;12.90;99.90
33095;DHT22;19459;53.044;8.910;2024-02-15T13:25:34;12.90;99.90
33095;DHT22;19459;53.044;8.910;2024-02-15T13:28:02;12.90;99.90
33095;DHT22;19459;53.044;8.910;2024-02-15T13:30:29;12.90;99.90
33095;DHT22;19459;53.044;8.910;2024-02-15T13:32:56;12.90;99.90
33095;DHT22;19459;53.044;8.910;2024-02-15T13:35:22;13.00;99.90
33095;DHT22;19459;53.044;8.910;2024-02-15T13:37:53;13.00;99.90
33095;DHT22;19459;53.044;8.910;2024-02-15T13:40:21;13.00;99.90
33095;DHT22;19459;53.044;8.910;2024-02-15T13:42:51;13.00;99.90
33095;DHT22;19459;53.044;8.910;2024-02-15T13:45:20;13.00;99.90
33095;DHT22;19459;53.044;8.910;2024-02-15T13:47:52;13.00;99.90
33095;DHT22;19459;53.044;8.910;2024-02-15T13:50:21;13.00;99.90
33095;DHT22;19459;53.044;8.910;2024-02-15T13:52:47;13.00;99.90
33095;DHT22;19459;53.044;8.910;2024-02-15T13:55:15;13.00;99.90
33095;DHT22;19459;53.044;8.910;2024-02-15T13:57:45;13.00;99.90
33095;DHT22;19459;53.044;8.910;2024-02-15T14:00:16;13.00;99.90
33095;DHT22;19459;53.044;8.910;2024-02-15T14:02:50;13.00;99.90
33095;DHT22;19459;53.044;8.910;2024-02-15T14:05:16;13.00;99.90
33095;DHT22;19459;53.044;8.910;2024-02-15T14:07:49;13.00;99.90
33095;DHT22;19459;53.044;8.910;2024-02-15T14:10:18;13.00;99.90
33095;DHT22;19459;53.044;8.910;2024-02-15T14:12:45;13.00;99.90
33095;DHT22;19459;53.044;8.910;2024-02-15T14:15:11;13.00;99.90
33095;DHT22;19459;53.044;8.910;2024-02-15T14:17:38;13.00;99.90
33095;DHT22;19459;53.044;8.910;2024-02-15T14:20:04;13.00;99.90
33095;DHT22;19459;53.044;8.910;2024-02-15T14:22:35;13.00;99.90
33095;DHT22;19459;53.044;8.910;2024-02-15T14:25:01;13.00;99.90
33095;DHT22;19459;53.044;8.910;2024-02-15T14:27:27;13.00;99.90
33095;DHT22;19459;53.044;8.910;2024-02-15T14:29:53;13.00;99.90
33095;DHT22;19459;53.044;8.910;2024-02-15T14:32:37;13.00;99.90
33095;DHT22;19459;53.044;8.910;2024-02-15T14:35:23;13.00;99.90
33095;DHT22;19459;53.044;8.910;2024-02-15T14:37:49;13.00;99.90
33095;DHT22;19459;53.044;8.910;2024-02-15T14:40:15;13.00;99.90
33095;DHT22;19459;53.044;8.910;2024-02-15T14:42:42;13.00;99.90
33095;DHT22;19459;53.044;8.910;2024-02-15T14:45:10;13.00;99.90
33095;DHT22;19459;53.044;8.910;2024-02-15T14:47:37;13.00;99.90
33095;DHT22;19459;53.044;8.910;2024-02-15T14:50:04;13.00;99.90
33095;DHT22;19459;53.044;8.910;2024-02-15T14:52:34;13.00;99.90
33095;DHT22;19459;53.044;8.910;2024-02-15T14:55:03;12.90;99.90
33095;DHT22;19459;53.044;8.910;2024-02-15T14:57:31;12.90;99.90
33095;DHT22;19459;53.044;8.910;2024-02-15T14:59:58;12.90;99.90
33095;DHT22;19459;53.044;8.910;2024-02-15T15:02:24;12.90;99.90
33095;DHT22;19459;53.044;8.910;2024-02-15T15:04:50;12.90;99.90
33095;DHT22;19459;53.044;8.910;2024-02-15T15:07:34;12.90;99.90
33095;DHT22;19459;53.044;8.910;2024-02-15T15:10:19;12.90;99.90
33095;DHT22;19459;53.044;8.910;2024-02-15T15:13:03;13.00;99.90
33095;DHT22;19459;53.044;8.910;2024-02-15T15:15:29;13.00;99.90
33095;DHT22;19459;53.044;8.910;2024-02-15T15:17:56;13.00;99.90
33095;DHT22;19459;53.044;8.910;2024-02-15T15:20:21;13.00;99.90
33095;DHT22;19459;53.044;8.910;2024-02-15T15:22:47;13.00;99.90
33095;DHT22;19459;53.044;8.910;2024-02-15T15:25:13;13.00;99.90
33095;DHT22;19459;53.044;8.910;2024-02-15T15:27:39;13.00;99.90
33095;DHT22;19459;53.044;8.910;2024-02-15T15:30:06;13.00;99.90
33095;DHT22;19459;53.044;8.910;2024-02-15T15:32:32;13.00;99.90
33095;DHT22;19459;53.044;8.910;2024-02-15T15:34:59;13.00;99.90
33095;DHT22;19459;53.044;8.910;2024-02-15T15:37:26;13.10;99.90
33095;DHT22;19459;53.044;8.910;2024-02-15T15:39:51;13.10;99.90
33095;DHT22;19459;53.044;8.910;2024-02-15T15:42:20;13.10;99.90
33095;DHT22;19459;53.044;8.910;2024-02-15T15:44:46;13.10;99.90
33095;DHT22;19459;53.044;8.910;2024-02-15T15:47:12;13.10;99.90
33095;DHT22;19459;53.044;8.910;2024-02-15T15:49:38;13.10;99.90